Time;durP1;ratioP1;P1;durP2;ratioP2;P2;SDS_P1;SDS_P2;PMS_P1;PMS_P2;Temp;Humidity;BMP_temperature;BMP_pressure;BME280_temperature;BME280_humidity;BME280_pressure;Samples;Min_cycle;Max_cycle;Signal;HPM_P1;HPM_P2
2020/12/14 00:02:17;;;;;;;5.93;1.98;;;8.50;83.20;;;;;;5136172;27;20049;-74
2020/12/14 00:08:05;;;;;;;5.68;1.77;;;8.50;82.50;;;;;;5155615;27;20057;-74
2020/12/14 00:10:30;;;;;;;4.90;1.90;;;8.50;82.60;;;;;;5136172;27;20058;-74
2020/12/14 00:12:57;;;;;;;3.97;2.03;;;8.50;82.60;;;;;;5136006;27;20030;-73
2020/12/14 00:15:23;;;;;;;3.35;1.73;;;8.50;83.10;;;;;;5136042;27;20014;-73
2020/12/14 00:17:50;;;;;;;3.80;1.83;;;8.60;83.90;;;;;;5154704;27;20466;-73
2020/12/14 00:20:15;;;;;;;3.50;1.90;;;8.50;85.10;;;;;;5136049;27;20050;-73
2020/12/14 00:22:41;;;;;;;2.83;1.60;;;8.50;85.70;;;;;;5135961;27;20031;-74
2020/12/14 00:25:07;;;;;;;4.70;1.70;;;8.60;85.90;;;;;;5154474;27;20081;-74
2020/12/14 00:27:32;;;;;;;4.25;1.70;;;8.60;85.40;;;;;;5154488;27;20034;-74
2020/12/14 00:29:58;;;;;;;4.03;1.42;;;8.60;85.30;;;;;;5135866;27;20038;-74
2020/12/14 00:32:24;;;;;;;4.10;1.90;;;8.60;84.50;;;;;;5135732;27;20807;-74
2020/12/14 00:34:50;;;;;;;4.95;2.10;;;8.60;85.00;;;;;;5154355;27;20541;-74
2020/12/14 00:37:16;;;;;;;4.40;1.70;;;8.60;85.80;;;;;;5154394;27;20019;-74
2020/12/14 00:39:42;;;;;;;4.05;1.88;;;8.60;85.40;;;;;;5135345;27;20069;-73
2020/12/14 00:42:09;;;;;;;4.40;1.88;;;8.60;84.70;;;;;;5157902;27;20467;-73
2020/12/14 00:44:34;;;;;;;4.15;1.80;;;8.60;84.10;;;;;;5139414;27;20025;-74
2020/12/14 00:47:00;;;;;;;4.57;1.92;;;8.60;84.30;;;;;;5158416;27;20030;-74
2020/12/14 00:49:26;;;;;;;3.33;1.80;;;8.60;83.90;;;;;;5157958;27;20095;-73
2020/12/14 00:51:51;;;;;;;3.40;1.60;;;8.60;84.70;;;;;;5139284;27;20030;-73
2020/12/14 00:54:17;;;;;;;6.43;2.13;;;8.60;84.60;;;;;;5158344;27;20064;-74
2020/12/14 00:56:43;;;;;;;4.35;1.60;;;8.60;83.90;;;;;;5139406;27;20047;-74
2020/12/14 00:59:09;;;;;;;4.22;1.50;;;8.60;84.90;;;;;;5157909;27;20362;-74
2020/12/14 01:01:35;;;;;;;2.80;1.83;;;8.60;84.10;;;;;;5157820;27;20030;-74
2020/12/14 01:04:00;;;;;;;3.50;1.73;;;8.70;85.20;;;;;;5157755;27;20218;-74
2020/12/14 01:09:48;;;;;;;4.45;1.58;;;8.70;85.00;;;;;;5158574;27;20064;-74
2020/12/14 01:12:13;;;;;;;3.75;1.70;;;8.70;84.50;;;;;;5138782;27;20054;-74
2020/12/14 01:14:39;;;;;;;2.90;1.60;;;8.70;83.90;;;;;;5139430;27;20526;-74
2020/12/14 01:17:05;;;;;;;7.13;1.60;;;8.70;83.90;;;;;;5138602;27;20030;-73
2020/12/14 01:19:30;;;;;;;4.30;1.48;;;8.80;84.10;;;;;;5138624;27;20023;-73
2020/12/14 01:21:56;;;;;;;3.72;1.35;;;8.80;84.50;;;;;;5138568;27;20030;-74
2020/12/14 01:24:22;;;;;;;5.13;1.70;;;8.80;83.70;;;;;;5157184;27;20054;-73
2020/12/14 01:26:47;;;;;;;5.47;1.60;;;8.80;83.20;;;;;;5157073;27;20034;-73
2020/12/14 01:29:13;;;;;;;4.30;1.50;;;8.80;82.50;;;;;;5156982;27;20147;-73
2020/12/14 01:31:39;;;;;;;4.68;1.80;;;8.80;82.30;;;;;;5156927;27;20023;-73
2020/12/14 01:34:04;;;;;;;4.38;1.30;;;8.80;82.20;;;;;;5138755;27;20478;-73
2020/12/14 01:36:30;;;;;;;3.22;1.38;;;8.80;82.00;;;;;;5138973;27;20113;-73
2020/12/14 01:38:56;;;;;;;2.58;1.30;;;8.90;82.00;;;;;;5138356;27;20060;-73
2020/12/14 01:41:21;;;;;;;3.55;1.50;;;8.90;82.20;;;;;;5134433;27;20047;-74
2020/12/14 01:43:47;;;;;;;4.55;1.30;;;8.90;82.10;;;;;;5134665;27;20498;-73
2020/12/14 01:46:13;;;;;;;3.28;1.42;;;8.90;81.90;;;;;;5136033;27;20031;-73
2020/12/14 01:48:39;;;;;;;4.35;1.50;;;8.90;81.80;;;;;;5134736;27;20041;-74
2020/12/14 01:51:04;;;;;;;4.85;1.55;;;8.90;81.90;;;;;;5135209;27;20082;-73
2020/12/14 01:53:32;;;;;;;2.85;1.30;;;8.90;81.90;;;;;;5136180;27;20224;-74
2020/12/14 01:56:02;;;;;;;4.78;1.73;;;8.90;82.00;;;;;;5134899;27;20023;-74
2020/12/14 01:58:27;;;;;;;3.17;1.48;;;8.90;82.90;;;;;;5135885;27;20033;-73
2020/12/14 02:00:53;;;;;;;2.03;1.40;;;8.90;83.40;;;;;;5135943;27;20027;-74
2020/12/14 02:03:19;;;;;;;5.03;1.60;;;8.90;83.70;;;;;;5134692;27;20530;-74
2020/12/14 02:05:44;;;;;;;4.50;1.58;;;8.90;83.00;;;;;;5136542;27;20038;-74
2020/12/14 02:08:10;;;;;;;3.17;1.65;;;8.90;82.50;;;;;;5134585;27;20035;-74
2020/12/14 02:10:36;;;;;;;4.03;1.40;;;9.00;82.10;;;;;;5134480;27;20079;-74
2020/12/14 02:13:02;;;;;;;2.55;1.30;;;9.00;81.90;;;;;;5134422;27;20031;-74
2020/12/14 02:15:28;;;;;;;3.88;1.50;;;9.00;81.80;;;;;;5134234;27;20025;-74
2020/12/14 02:17:53;;;;;;;2.72;1.30;;;9.00;81.60;;;;;;5134027;27;20106;-73
2020/12/14 02:20:19;;;;;;;4.47;1.40;;;9.10;81.50;;;;;;5133946;27;20031;-74
2020/12/14 02:22:44;;;;;;;3.30;1.60;;;9.10;81.20;;;;;;5135440;27;20061;-74
2020/12/14 02:25:10;;;;;;;3.42;1.60;;;9.00;82.10;;;;;;5133782;27;20035;-74
2020/12/14 02:27:37;;;;;;;2.85;1.55;;;9.00;81.70;;;;;;5134011;27;20703;-74
2020/12/14 02:30:05;;;;;;;4.82;1.55;;;9.00;82.20;;;;;;5135499;27;20027;-74
2020/12/14 02:32:31;;;;;;;3.38;1.30;;;9.00;82.40;;;;;;5135367;27;20027;-74
2020/12/14 02:34:58;;;;;;;3.90;1.50;;;9.00;82.00;;;;;;5133918;27;20115;-74
2020/12/14 02:37:26;;;;;;;4.97;1.60;;;9.00;81.90;;;;;;5134894;27;20027;-74
2020/12/14 02:39:51;;;;;;;3.75;1.63;;;9.00;82.10;;;;;;5133621;27;20027;-73
2020/12/14 02:42:19;;;;;;;2.15;1.38;;;9.00;81.70;;;;;;5133298;27;20183;-73
2020/12/14 02:44:46;;;;;;;3.67;1.60;;;9.00;81.90;;;;;;5133432;27;20386;-74
2020/12/14 02:47:13;;;;;;;2.03;1.33;;;9.00;81.70;;;;;;5133364;27;20119;-73
2020/12/14 02:49:39;;;;;;;4.50;1.40;;;9.00;81.80;;;;;;5133262;27;20023;-74
2020/12/14 02:52:07;;;;;;;2.22;1.48;;;9.00;81.60;;;;;;5133089;27;20031;-74
2020/12/14 02:54:33;;;;;;;4.85;1.50;;;9.00;81.90;;;;;;5134690;27;20023;-74
2020/12/14 02:56:59;;;;;;;2.42;1.38;;;9.00;81.90;;;;;;5133333;27;20023;-74
2020/12/14 02:59:25;;;;;;;2.72;1.35;;;9.00;81.80;;;;;;5134639;27;20466;-74
2020/12/14 03:01:51;;;;;;;3.80;1.40;;;9.00;81.70;;;;;;5133142;27;20026;-74
2020/12/14 03:04:17;;;;;;;3.17;1.55;;;9.00;81.50;;;;;;5134431;27;20050;-74
2020/12/14 03:06:44;;;;;;;3.15;1.40;;;9.00;81.70;;;;;;5132994;27;20023;-74
2020/12/14 03:09:11;;;;;;;2.95;1.45;;;9.00;81.90;;;;;;5134193;27;20027;-74
2020/12/14 03:11:37;;;;;;;2.83;1.30;;;9.00;81.80;;;;;;5134581;27;20035;-74
2020/12/14 03:14:03;;;;;;;2.65;1.40;;;9.00;81.70;;;;;;5134230;27;20107;-73
2020/12/14 03:16:29;;;;;;;3.45;1.25;;;9.00;81.60;;;;;;5132908;27;20072;-74
2020/12/14 03:18:54;;;;;;;2.63;1.90;;;9.00;81.50;;;;;;5132911;27;20034;-75
2020/12/14 03:21:20;;;;;;;3.10;1.65;;;9.00;81.50;;;;;;5132973;27;20034;-74
2020/12/14 03:23:46;;;;;;;4.97;1.70;;;9.00;81.80;;;;;;5132916;27;20459;-74
2020/12/14 03:26:17;;;;;;;2.55;1.30;;;9.00;81.70;;;;;;5132820;27;20194;-74
2020/12/14 03:28:43;;;;;;;2.53;1.40;;;9.00;81.80;;;;;;5132958;27;20055;-74
2020/12/14 03:31:10;;;;;;;2.63;1.40;;;9.00;82.00;;;;;;5132757;27;20100;-74
2020/12/14 03:33:36;;;;;;;3.28;1.50;;;9.00;81.90;;;;;;5132545;27;20037;-74
2020/12/14 03:36:02;;;;;;;2.20;1.35;;;9.00;82.70;;;;;;5132569;27;20019;-74
2020/12/14 03:38:27;;;;;;;3.08;1.45;;;9.00;82.40;;;;;;5133751;27;20031;-73
2020/12/14 03:40:53;;;;;;;2.88;1.48;;;9.00;82.30;;;;;;5132230;27;20080;-74
2020/12/14 03:43:19;;;;;;;2.90;1.30;;;9.00;82.40;;;;;;5132206;28;20534;-74
2020/12/14 03:45:44;;;;;;;2.83;1.50;;;9.00;82.40;;;;;;5133789;27;20023;-74
2020/12/14 03:48:10;;;;;;;3.28;1.50;;;9.00;82.60;;;;;;5132158;28;20037;-74
2020/12/14 03:50:42;;;;;;;6.28;1.70;;;9.00;82.70;;;;;;5133817;27;20035;-74
2020/12/14 03:53:08;;;;;;;4.90;1.70;;;9.00;83.40;;;;;;5133360;27;20031;-74
2020/12/14 03:55:34;;;;;;;5.70;1.60;;;9.00;83.50;;;;;;5133525;27;20026;-74
2020/12/14 03:57:59;;;;;;;3.97;1.63;;;9.00;83.30;;;;;;5133452;27;20027;-74
2020/12/14 04:00:25;;;;;;;1.52;1.42;;;8.90;83.30;;;;;;5132105;28;20019;-74
2020/12/14 04:02:51;;;;;;;4.68;1.30;;;8.90;83.40;;;;;;5133877;27;20027;-74
2020/12/14 04:05:16;;;;;;;1.50;1.20;;;8.90;83.50;;;;;;5133689;27;20059;-74
2020/12/14 04:07:42;;;;;;;3.53;1.50;;;8.90;83.60;;;;;;5133654;27;20098;-74
2020/12/14 04:10:08;;;;;;;2.10;1.30;;;8.90;83.60;;;;;;5131935;28;20029;-73
2020/12/14 04:12:33;;;;;;;2.00;1.42;;;8.90;83.80;;;;;;5133374;27;20073;-74
2020/12/14 04:14:59;;;;;;;3.95;1.52;;;8.90;83.80;;;;;;5136583;27;20050;-74
2020/12/14 04:17:25;;;;;;;3.22;1.50;;;8.90;83.80;;;;;;5136012;27;20442;-74
2020/12/14 04:19:50;;;;;;;2.67;1.30;;;8.90;83.80;;;;;;5137427;27;20304;-74
2020/12/14 04:22:16;;;;;;;2.85;1.40;;;8.90;83.90;;;;;;5136077;27;20026;-74
2020/12/14 04:24:41;;;;;;;2.20;1.38;;;8.90;84.20;;;;;;5137504;27;20027;-74
2020/12/14 04:27:07;;;;;;;2.17;1.40;;;8.90;84.20;;;;;;5135827;27;20042;-74
2020/12/14 04:29:33;;;;;;;4.00;1.55;;;8.90;84.30;;;;;;5137701;27;20050;-73
2020/12/14 04:31:58;;;;;;;2.35;1.90;;;8.90;84.30;;;;;;5135831;27;20034;-74
2020/12/14 04:34:24;;;;;;;2.97;1.48;;;8.90;84.40;;;;;;5137237;27;20053;-74
2020/12/14 04:36:50;;;;;;;2.13;1.40;;;8.90;84.50;;;;;;5136325;27;20023;-74
2020/12/14 04:39:17;;;;;;;2.47;1.40;;;8.90;84.50;;;;;;5136085;27;20054;-73
2020/12/14 04:41:43;;;;;;;3.63;1.90;;;8.90;84.60;;;;;;5135666;27;20122;-74
2020/12/14 04:44:10;;;;;;;2.05;1.55;;;8.90;84.70;;;;;;5135472;27;20031;-74
2020/12/14 04:46:35;;;;;;;1.80;1.30;;;9.00;84.90;;;;;;5136900;27;20033;-73
2020/12/14 04:49:06;;;;;;;2.15;1.40;;;9.00;85.00;;;;;;5136786;27;20031;-73
2020/12/14 04:51:41;;;;;;;2.42;1.60;;;9.00;85.10;;;;;;5135591;27;20084;-73
2020/12/14 04:54:07;;;;;;;2.38;1.50;;;9.00;85.40;;;;;;5136830;27;20050;-74
2020/12/14 04:56:39;;;;;;;3.22;1.60;;;8.90;85.40;;;;;;5137118;27;20023;-73
2020/12/14 04:59:05;;;;;;;2.58;1.50;;;8.90;85.50;;;;;;5136433;27;20113;-74
2020/12/14 05:01:31;;;;;;;2.33;1.60;;;8.90;85.80;;;;;;5136762;27;20027;-73
2020/12/14 05:03:56;;;;;;;2.00;1.40;;;8.90;85.90;;;;;;5135400;27;20039;-73
2020/12/14 05:06:22;;;;;;;2.95;1.40;;;8.90;86.00;;;;;;5135314;27;20033;-74
2020/12/14 05:08:48;;;;;;;3.90;1.42;;;8.80;86.10;;;;;;5136758;27;20023;-74
2020/12/14 05:11:13;;;;;;;2.88;1.40;;;8.90;86.20;;;;;;5136632;27;20466;-74
2020/12/14 05:13:40;;;;;;;3.75;1.45;;;8.80;86.10;;;;;;5136550;27;20105;-73
2020/12/14 05:16:06;;;;;;;1.95;1.58;;;8.90;86.30;;;;;;5136976;27;20022;-74
2020/12/14 05:18:31;;;;;;;2.30;1.55;;;8.90;86.30;;;;;;5135294;27;20016;-74
2020/12/14 05:20:57;;;;;;;2.92;1.70;;;8.90;86.30;;;;;;5135105;27;20437;-73
2020/12/14 05:23:23;;;;;;;1.98;1.20;;;8.90;86.30;;;;;;5136397;27;20027;-74
2020/12/14 05:25:49;;;;;;;1.88;1.50;;;8.90;86.50;;;;;;5135138;27;20030;-74
2020/12/14 05:28:19;;;;;;;1.85;1.23;;;8.90;86.70;;;;;;5134895;27;20466;-74
2020/12/14 05:30:49;;;;;;;2.63;1.65;;;8.80;86.70;;;;;;5136411;27;20042;-74
2020/12/14 05:33:20;;;;;;;1.60;1.50;;;8.90;86.70;;;;;;5136177;27;20032;-73
2020/12/14 05:35:46;;;;;;;2.90;1.30;;;8.90;86.80;;;;;;5134832;27;20535;-73
2020/12/14 05:38:23;;;;;;;2.92;1.65;;;8.80;87.00;;;;;;5134819;27;20138;-74
2020/12/14 05:40:51;;;;;;;3.35;1.48;;;8.80;87.00;;;;;;5141202;27;20138;-74
2020/12/14 05:43:20;;;;;;;2.67;1.73;;;8.80;87.00;;;;;;5138117;27;20439;-74
2020/12/14 05:45:46;;;;;;;2.65;1.42;;;8.80;87.10;;;;;;5138172;27;20034;-74
2020/12/14 05:48:21;;;;;;;2.38;1.55;;;8.80;87.50;;;;;;5156782;27;20031;-73
2020/12/14 05:50:52;;;;;;;2.30;1.35;;;8.80;87.40;;;;;;5156612;27;20137;-74
2020/12/14 05:53:22;;;;;;;3.25;1.50;;;8.80;87.30;;;;;;5137962;27;20444;-74
2020/12/14 05:55:48;;;;;;;2.55;1.42;;;8.80;87.30;;;;;;5156667;27;20473;-74
2020/12/14 05:58:15;;;;;;;1.45;1.35;;;8.80;87.40;;;;;;5138279;27;20042;-74
2020/12/14 06:00:45;;;;;;;2.50;1.20;;;8.80;87.40;;;;;;5138080;27;20528;-74
2020/12/14 06:03:11;;;;;;;1.55;1.30;;;8.80;87.50;;;;;;5156415;27;20023;-74
2020/12/14 06:05:37;;;;;;;1.40;1.30;;;8.80;87.50;;;;;;5156252;27;20026;-74
2020/12/14 06:08:20;;;;;;;1.73;1.40;;;8.80;87.40;;;;;;5137719;27;20211;-74
2020/12/14 06:10:49;;;;;;;1.73;1.25;;;8.80;87.40;;;;;;5137747;27;20133;-74
2020/12/14 06:13:22;;;;;;;3.17;1.60;;;8.80;88.00;;;;;;5137873;27;20031;-74
2020/12/14 06:15:49;;;;;;;2.15;1.45;;;8.80;87.30;;;;;;5156233;27;20053;-74
2020/12/14 06:18:20;;;;;;;3.35;1.70;;;8.80;87.30;;;;;;5137781;27;20030;-74
2020/12/14 06:20:46;;;;;;;2.92;1.52;;;8.90;87.40;;;;;;5156049;27;20037;-74
2020/12/14 06:23:13;;;;;;;1.55;1.40;;;8.90;87.40;;;;;;5156252;27;20031;-73
2020/12/14 06:25:39;;;;;;;1.98;1.35;;;8.90;87.40;;;;;;5137365;27;20495;-73
2020/12/14 06:28:37;;;;;;;3.03;1.52;;;8.90;87.40;;;;;;5137267;27;20026;-75
2020/12/14 06:31:03;;;;;;;1.73;1.30;;;8.90;87.60;;;;;;5092507;27;20042;-74
2020/12/14 06:33:46;;;;;;;2.70;1.50;;;8.90;87.50;;;;;;5137109;27;20038;-74
2020/12/14 06:36:21;;;;;;;4.05;1.83;;;8.90;87.50;;;;;;5136794;27;20110;-74
2020/12/14 06:38:49;;;;;;;1.67;1.50;;;8.90;87.50;;;;;;5137046;27;20031;-74
2020/12/14 06:41:23;;;;;;;2.17;1.48;;;8.90;87.60;;;;;;5136913;27;20039;-74
2020/12/14 06:44:03;;;;;;;1.92;1.70;;;8.90;87.60;;;;;;5155533;27;20022;-74
2020/12/14 06:46:32;;;;;;;2.92;1.40;;;8.90;87.60;;;;;;5155621;27;20441;-74
2020/12/14 06:48:58;;;;;;;2.35;1.35;;;8.90;87.70;;;;;;5137246;27;20065;-74
2020/12/14 06:51:24;;;;;;;3.40;1.30;;;8.90;87.80;;;;;;5155608;27;20023;-74
2020/12/14 06:53:54;;;;;;;1.75;1.50;;;8.90;87.80;;;;;;5136671;27;20045;-74
2020/12/14 06:56:32;;;;;;;3.88;1.60;;;8.90;87.80;;;;;;5136891;27;20028;-74
2020/12/14 06:58:58;;;;;;;4.18;1.70;;;8.90;87.90;;;;;;5136847;27;20027;-73
2020/12/14 07:01:41;;;;;;;2.70;1.40;;;8.90;88.00;;;;;;5136690;27;20052;-74
2020/12/14 07:04:31;;;;;;;2.20;1.60;;;8.90;88.10;;;;;;5155288;27;20030;-73
2020/12/14 07:07:17;;;;;;;2.03;1.40;;;8.90;88.10;;;;;;5136647;27;20489;-73
2020/12/14 07:09:43;;;;;;;1.80;1.60;;;8.90;88.10;;;;;;5136634;27;20039;-73
2020/12/14 07:12:09;;;;;;;2.90;2.03;;;8.90;88.10;;;;;;5155538;27;20034;-74
2020/12/14 07:14:48;;;;;;;2.08;1.33;;;8.90;88.10;;;;;;5136830;27;20608;-74
2020/12/14 07:17:25;;;;;;;2.92;1.90;;;8.90;88.20;;;;;;5137121;27;20023;-73
2020/12/14 07:19:52;;;;;;;2.25;1.65;;;8.90;88.20;;;;;;5155649;27;20065;-74
2020/12/14 07:22:38;;;;;;;1.95;1.60;;;8.90;88.20;;;;;;5137576;27;20026;-74
2020/12/14 07:25:06;;;;;;;6.30;3.50;;;8.90;88.30;;;;;;5155094;27;20033;-74
2020/12/14 07:27:33;;;;;;;2.88;2.22;;;8.90;88.30;;;;;;5136311;27;20038;-74
2020/12/14 07:30:09;;;;;;;4.38;2.30;;;8.90;88.30;;;;;;5136253;27;20030;-73
2020/12/14 07:32:36;;;;;;;2.30;1.80;;;8.90;88.50;;;;;;5154635;27;20054;-73
2020/12/14 07:35:06;;;;;;;3.17;1.60;;;8.90;88.50;;;;;;5136227;27;20015;-73
2020/12/14 07:37:32;;;;;;;3.35;2.00;;;8.90;88.50;;;;;;5136048;27;20023;-74
2020/12/14 07:39:57;;;;;;;3.10;1.90;;;8.90;88.60;;;;;;5135976;27;20114;-74
2020/12/14 07:42:29;;;;;;;3.58;2.00;;;8.90;88.60;;;;;;5154302;27;20479;-73
2020/12/14 07:45:10;;;;;;;2.25;1.88;;;9.00;88.70;;;;;;5135934;27;20163;-73
2020/12/14 07:47:36;;;;;;;2.85;1.90;;;9.00;88.70;;;;;;5135777;27;20280;-74
2020/12/14 07:50:22;;;;;;;2.28;1.85;;;9.00;88.70;;;;;;5135444;27;20435;-74
2020/12/14 07:52:50;;;;;;;2.30;1.85;;;9.00;88.70;;;;;;5136363;27;20030;-74
2020/12/14 07:55:17;;;;;;;3.03;1.80;;;9.00;88.70;;;;;;5135974;27;20358;-73
2020/12/14 07:57:44;;;;;;;2.22;1.80;;;9.00;88.70;;;;;;5135876;27;20071;-73
2020/12/14 08:00:19;;;;;;;2.38;2.08;;;9.10;88.70;;;;;;5135902;27;20098;-74
2020/12/14 08:02:45;;;;;;;2.65;1.88;;;9.10;88.60;;;;;;5135967;27;20063;-73
2020/12/14 08:05:16;;;;;;;2.40;2.20;;;9.10;88.60;;;;;;5135819;27;20058;-74
2020/12/14 08:11:04;;;;;;;2.85;2.17;;;9.10;88.70;;;;;;5154512;27;20469;-74
2020/12/14 08:13:29;;;;;;;4.75;4.05;;;9.20;88.70;;;;;;5135783;27;20026;-74
2020/12/14 08:15:55;;;;;;;5.05;3.97;;;9.20;88.70;;;;;;5154287;27;20071;-73
2020/12/14 08:18:21;;;;;;;3.72;3.20;;;9.20;88.80;;;;;;5135653;27;20027;-74
2020/12/14 08:20:47;;;;;;;3.03;2.50;;;9.20;88.90;;;;;;5154520;27;20054;-73
2020/12/14 08:23:21;;;;;;;3.03;2.60;;;9.20;88.80;;;;;;5135517;27;20049;-73
2020/12/14 08:25:49;;;;;;;5.47;2.67;;;9.20;88.90;;;;;;5154091;27;20414;-73
2020/12/14 08:28:15;;;;;;;4.85;2.30;;;9.20;88.90;;;;;;5154094;27;20023;-73
2020/12/14 08:30:41;;;;;;;2.83;2.30;;;9.30;89.00;;;;;;5154060;27;20482;-73
2020/12/14 08:33:13;;;;;;;3.17;2.33;;;9.30;89.00;;;;;;5154096;27;20130;-74
2020/12/14 08:35:41;;;;;;;2.38;2.17;;;9.30;89.10;;;;;;5154209;27;20099;-73
2020/12/14 08:38:21;;;;;;;2.35;2.08;;;9.30;89.10;;;;;;5135633;27;20023;-73
2020/12/14 08:41:12;;;;;;;2.63;1.98;;;9.30;89.10;;;;;;5135596;27;20051;-73
2020/12/14 08:43:38;;;;;;;2.30;2.03;;;9.30;89.10;;;;;;5135531;27;20118;-73
2020/12/14 08:46:07;;;;;;;2.15;1.95;;;9.40;89.10;;;;;;5153900;27;20035;-74
2020/12/14 08:49:02;;;;;;;2.25;1.98;;;9.40;89.10;;;;;;5135574;27;20029;-73
2020/12/14 08:51:33;;;;;;;2.78;2.20;;;9.40;89.10;;;;;;5153900;27;20533;-73
2020/12/14 08:54:15;;;;;;;2.33;2.13;;;9.50;89.20;;;;;;5135279;27;20434;-73
2020/12/14 08:56:42;;;;;;;2.33;2.13;;;9.50;89.10;;;;;;5135254;27;20031;-72
2020/12/14 08:59:17;;;;;;;2.40;2.20;;;9.50;89.30;;;;;;5153613;27;20026;-73
2020/12/14 09:01:58;;;;;;;2.75;2.30;;;9.50;89.30;;;;;;5157264;27;20034;-73
2020/12/14 09:04:29;;;;;;;2.40;2.20;;;9.50;89.30;;;;;;5138637;27;20038;-72
2020/12/14 09:06:55;;;;;;;2.78;2.50;;;9.50;89.30;;;;;;5157342;27;20450;-74
2020/12/14 09:09:32;;;;;;;3.13;2.55;;;9.60;89.90;;;;;;5138602;27;20038;-73
2020/12/14 09:11:59;;;;;;;2.40;2.20;;;9.70;89.40;;;;;;5138608;27;20042;-73
2020/12/14 09:14:30;;;;;;;2.80;2.50;;;9.70;89.40;;;;;;5138499;27;20546;-73
2020/12/14 09:17:02;;;;;;;2.50;2.15;;;9.70;89.30;;;;;;5157014;27;20027;-73
2020/12/14 09:19:33;;;;;;;2.95;2.40;;;9.80;89.40;;;;;;5157036;27;20105;-73
2020/12/14 09:22:00;;;;;;;2.90;2.67;;;9.80;89.30;;;;;;5138698;27;20035;-73
2020/12/14 09:24:33;;;;;;;3.72;2.72;;;9.80;89.30;;;;;;5157179;27;20027;-73
2020/12/14 09:27:05;;;;;;;2.17;2.08;;;9.80;89.50;;;;;;5157031;27;20431;-73
2020/12/14 09:29:32;;;;;;;2.38;2.17;;;9.90;89.60;;;;;;5156862;27;20026;-73
2020/12/14 09:31:58;;;;;;;3.67;2.55;;;9.90;89.70;;;;;;5138374;27;20444;-73
2020/12/14 09:34:25;;;;;;;2.38;2.17;;;10.00;89.70;;;;;;5138398;27;20118;-73
2020/12/14 09:36:52;;;;;;;3.30;2.30;;;10.00;89.70;;;;;;5157001;27;20022;-73
2020/12/14 09:39:19;;;;;;;2.90;2.58;;;10.10;89.70;;;;;;5157083;27;20019;-73
2020/12/14 09:41:44;;;;;;;3.28;2.70;;;10.20;89.70;;;;;;5156792;27;20495;-73
2020/12/14 09:44:10;;;;;;;2.58;2.17;;;10.20;89.70;;;;;;5156733;27;20055;-73
2020/12/14 09:46:36;;;;;;;2.45;2.20;;;10.30;89.80;;;;;;5138295;27;20034;-74
2020/12/14 09:49:01;;;;;;;2.17;2.08;;;10.30;89.70;;;;;;5138348;27;20035;-73
2020/12/14 09:51:28;;;;;;;2.30;2.10;;;10.40;89.80;;;;;;5137967;27;20037;-73
2020/12/14 09:53:55;;;;;;;2.20;2.00;;;10.40;89.80;;;;;;5156519;27;20027;-73
2020/12/14 09:56:21;;;;;;;2.05;1.95;;;10.40;89.70;;;;;;5157059;27;20023;-73
2020/12/14 09:58:47;;;;;;;1.70;1.60;;;10.40;89.80;;;;;;5137898;27;20026;-73
2020/12/14 10:01:13;;;;;;;2.00;1.90;;;10.50;89.80;;;;;;5156892;27;20554;-73
2020/12/14 10:03:39;;;;;;;2.17;1.83;;;10.50;89.90;;;;;;5137782;27;20030;-72
2020/12/14 10:06:04;;;;;;;1.98;1.88;;;10.60;89.90;;;;;;5155987;27;20031;-74
2020/12/14 10:08:30;;;;;;;2.63;2.13;;;10.60;89.90;;;;;;5137859;27;20079;-73
2020/12/14 10:10:56;;;;;;;1.88;1.63;;;10.60;89.90;;;;;;5155722;27;20038;-74
2020/12/14 10:13:24;;;;;;;1.98;1.73;;;10.70;90.00;;;;;;5137273;27;20508;-73
2020/12/14 10:15:55;;;;;;;1.98;1.70;;;10.70;90.00;;;;;;5156378;27;20019;-73
2020/12/14 10:18:20;;;;;;;3.67;1.90;;;10.70;90.00;;;;;;5156900;27;20027;-72
2020/12/14 10:20:46;;;;;;;2.30;2.10;;;10.70;89.90;;;;;;5156097;27;20045;-73
2020/12/14 10:23:12;;;;;;;3.15;2.67;;;10.80;90.00;;;;;;5137566;27;20022;-73
2020/12/14 10:25:39;;;;;;;3.88;3.33;;;10.80;89.90;;;;;;5137282;27;20030;-73
2020/12/14 10:28:05;;;;;;;3.75;2.92;;;10.90;89.90;;;;;;5155924;27;20031;-73
2020/12/14 10:30:32;;;;;;;2.15;1.95;;;10.90;89.90;;;;;;5156137;27;20102;-73
2020/12/14 10:32:58;;;;;;;1.60;1.50;;;10.90;89.90;;;;;;5137090;27;20089;-74
2020/12/14 10:35:24;;;;;;;1.70;1.60;;;11.00;89.80;;;;;;5137034;27;20019;-73
2020/12/14 10:37:50;;;;;;;1.77;1.50;;;11.00;89.90;;;;;;5136957;27;20033;-73
2020/12/14 10:40:16;;;;;;;2.08;1.90;;;11.00;89.80;;;;;;5137313;27;20489;-73
2020/12/14 10:42:42;;;;;;;1.70;1.60;;;11.10;89.70;;;;;;5136692;27;20130;-72
2020/12/14 10:45:08;;;;;;;2.55;1.90;;;11.20;89.80;;;;;;5155399;27;20497;-73
2020/12/14 10:47:35;;;;;;;1.70;1.60;;;11.20;89.80;;;;;;5137820;27;20488;-73
2020/12/14 10:50:00;;;;;;;1.65;1.50;;;11.20;89.70;;;;;;5137063;27;20121;-73
2020/12/14 10:52:26;;;;;;;2.63;1.40;;;11.20;89.60;;;;;;5136824;27;20035;-73
2020/12/14 10:54:51;;;;;;;1.63;1.52;;;11.30;90.00;;;;;;5136659;27;20526;-73
2020/12/14 10:57:18;;;;;;;1.60;1.50;;;11.30;89.60;;;;;;5136584;27;20064;-74
2020/12/14 10:59:44;;;;;;;2.20;1.98;;;11.40;89.50;;;;;;5136433;27;20026;-73
2020/12/14 11:02:10;;;;;;;1.60;1.50;;;11.40;89.50;;;;;;5137298;27;20030;-72
2020/12/14 11:07:58;;;;;;;2.08;1.60;;;11.40;89.40;;;;;;5155716;27;20110;-73
2020/12/14 11:10:24;;;;;;;1.40;1.30;;;11.40;89.40;;;;;;5136667;27;20106;-74
2020/12/14 11:12:50;;;;;;;1.88;1.25;;;11.40;89.30;;;;;;5136106;27;20026;-73
2020/12/14 11:15:16;;;;;;;1.80;1.40;;;11.40;89.30;;;;;;5136308;27;20079;-73
2020/12/14 11:17:43;;;;;;;1.77;1.45;;;11.50;89.30;;;;;;5155565;27;20102;-73
2020/12/14 11:20:12;;;;;;;1.65;1.50;;;11.40;89.30;;;;;;5137676;27;20029;-73
2020/12/14 11:22:39;;;;;;;1.70;1.48;;;11.50;89.30;;;;;;5136256;27;20023;-72
2020/12/14 11:25:06;;;;;;;1.63;1.52;;;11.50;89.30;;;;;;5135806;27;20106;-73
2020/12/14 11:27:32;;;;;;;1.67;1.58;;;11.40;89.20;;;;;;5136077;27;20095;-74
2020/12/14 11:29:58;;;;;;;1.52;1.30;;;11.40;89.20;;;;;;5135942;27;20358;-73
2020/12/14 11:32:24;;;;;;;1.70;1.60;;;11.50;89.30;;;;;;5135916;27;20037;-73
2020/12/14 11:34:50;;;;;;;3.75;3.05;;;11.50;89.20;;;;;;5135814;27;20022;-73
2020/12/14 11:37:15;;;;;;;4.25;3.60;;;11.50;89.20;;;;;;5154406;27;20424;-73
2020/12/14 11:39:41;;;;;;;5.22;3.50;;;11.50;89.20;;;;;;5135757;27;20557;-73
2020/12/14 11:42:07;;;;;;;3.75;3.17;;;11.50;89.10;;;;;;5135491;27;20442;-72
2020/12/14 11:44:32;;;;;;;3.17;2.80;;;11.50;89.10;;;;;;5090477;28;20491;-73
2020/12/14 11:46:58;;;;;;;4.43;2.90;;;11.50;89.10;;;;;;5090909;28;20400;-73
2020/12/14 11:49:23;;;;;;;2.60;2.40;;;11.50;89.00;;;;;;5090961;28;20032;-73
2020/12/14 11:51:50;;;;;;;2.40;2.20;;;11.60;89.10;;;;;;5073617;28;20384;-73
2020/12/14 11:54:17;;;;;;;2.80;2.15;;;11.60;89.10;;;;;;5073408;28;20044;-73
2020/12/14 11:56:46;;;;;;;2.15;1.95;;;11.60;89.00;;;;;;5090482;28;20024;-73
2020/12/14 11:59:13;;;;;;;2.10;1.77;;;11.60;89.00;;;;;;5090427;28;20039;-73
2020/12/14 12:01:39;;;;;;;2.92;1.63;;;11.60;89.00;;;;;;5073458;28;20020;-73
2020/12/14 12:04:05;;;;;;;1.60;1.40;;;11.60;89.00;;;;;;5090493;28;20059;-73
2020/12/14 12:06:30;;;;;;;1.75;1.65;;;11.60;89.00;;;;;;5073612;28;20081;-73
2020/12/14 12:08:57;;;;;;;1.63;1.40;;;11.60;88.90;;;;;;5073279;28;20550;-74
2020/12/14 12:11:23;;;;;;;1.58;1.48;;;11.60;88.90;;;;;;5073324;28;20135;-73
2020/12/14 12:13:50;;;;;;;2.00;1.88;;;11.60;88.90;;;;;;5073264;28;20039;-73
2020/12/14 12:16:15;;;;;;;2.60;1.80;;;11.60;88.80;;;;;;5123663;27;20030;-73
2020/12/14 12:18:42;;;;;;;1.63;1.52;;;11.60;88.80;;;;;;5135485;27;20355;-73
2020/12/14 12:21:08;;;;;;;2.60;1.85;;;11.60;88.70;;;;;;5135888;27;20046;-73
2020/12/14 12:23:34;;;;;;;1.70;1.60;;;11.70;88.70;;;;;;5135421;27;20050;-73
2020/12/14 12:26:00;;;;;;;2.17;1.63;;;11.70;88.60;;;;;;5135330;27;20459;-73
2020/12/14 12:28:25;;;;;;;3.92;1.70;;;11.70;89.20;;;;;;5135527;27;20026;-73
2020/12/14 12:30:51;;;;;;;1.95;1.73;;;11.70;88.50;;;;;;5153920;27;20031;-73
2020/12/14 12:33:17;;;;;;;2.50;1.92;;;11.70;88.40;;;;;;5154163;27;20442;-73
2020/12/14 12:35:42;;;;;;;2.22;2.00;;;11.80;88.40;;;;;;5138086;27;20026;-73
2020/12/14 12:38:09;;;;;;;2.15;1.88;;;11.80;88.30;;;;;;5139296;27;20038;-73
2020/12/14 12:40:35;;;;;;;2.25;1.60;;;11.80;88.20;;;;;;5158252;27;20022;-73
2020/12/14 12:43:01;;;;;;;1.77;1.67;;;11.90;88.20;;;;;;5139537;27;20022;-72
2020/12/14 12:45:26;;;;;;;2.50;1.60;;;11.90;88.10;;;;;;5157679;27;20038;-72
2020/12/14 12:47:52;;;;;;;1.90;1.70;;;11.90;88.00;;;;;;5139023;27;20506;-71
2020/12/14 12:50:17;;;;;;;1.63;1.50;;;12.00;87.90;;;;;;5138915;27;20384;-73
2020/12/14 12:52:43;;;;;;;1.83;1.30;;;12.10;87.80;;;;;;5157743;27;20102;-72
2020/12/14 12:55:09;;;;;;;1.63;1.50;;;12.10;87.70;;;;;;5138945;27;20026;-72
2020/12/14 12:57:34;;;;;;;2.75;1.60;;;12.20;87.60;;;;;;5157619;27;20019;-72
2020/12/14 13:00:00;;;;;;;1.48;1.38;;;12.20;87.40;;;;;;5138990;27;20368;-73
2020/12/14 13:02:25;;;;;;;1.30;1.20;;;12.20;87.30;;;;;;5157530;27;20019;-72
2020/12/14 13:04:51;;;;;;;1.27;1.17;;;12.30;87.30;;;;;;5139005;27;20350;-72
2020/12/14 13:07:18;;;;;;;1.30;1.20;;;12.30;87.30;;;;;;5138960;27;20026;-72
2020/12/14 13:09:44;;;;;;;2.70;1.40;;;12.30;87.20;;;;;;5157491;27;20094;-72
2020/12/14 13:12:10;;;;;;;2.08;1.30;;;12.30;87.10;;;;;;5157447;27;20019;-72